createdAt,value
2022-09-23T00:00:03.493Z,21.03
2022-09-23T00:00:13.567Z,21.01
2022-09-23T00:00:23.667Z,21.01
2022-09-23T00:00:33.731Z,21.00
2022-09-23T00:00:43.806Z,21.00
2022-09-23T00:00:53.902Z,21.01
2022-09-23T00:01:04.011Z,21.05
2022-09-23T00:01:14.115Z,21.01
2022-09-23T00:01:24.153Z,21.03
2022-09-23T00:01:34.296Z,21.00
2022-09-23T00:01:44.326Z,21.01
2022-09-23T00:01:54.390Z,21.03
2022-09-23T00:02:04.478Z,21.01
2022-09-23T00:02:14.556Z,21.01
2022-09-23T00:02:24.661Z,21.01
2022-09-23T00:02:34.708Z,21.01
2022-09-23T00:02:44.848Z,21.01
2022-09-23T00:02:54.870Z,21.01
2022-09-23T00:03:04.902Z,21.01
2022-09-23T00:03:14.969Z,21.01
2022-09-23T00:03:25.069Z,21.00
2022-09-23T00:03:35.152Z,21.00
2022-09-23T00:03:45.219Z,21.01
2022-09-23T00:03:55.301Z,21.00
2022-09-23T00:04:05.386Z,21.00
2022-09-23T00:04:15.470Z,21.00
2022-09-23T00:04:25.556Z,21.00
2022-09-23T00:04:35.623Z,21.03
2022-09-23T00:04:45.697Z,21.00
2022-09-23T00:04:55.794Z,21.03
2022-09-23T00:05:05.925Z,21.01
2022-09-23T00:05:15.951Z,21.00
2022-09-23T00:05:26.044Z,21.01
2022-09-23T00:05:36.140Z,21.00
2022-09-23T00:05:46.214Z,20.98
2022-09-23T00:05:56.319Z,21.00
2022-09-23T00:06:06.404Z,21.01
2022-09-23T00:06:16.496Z,21.01
2022-09-23T00:06:26.576Z,21.00
2022-09-23T00:06:36.671Z,21.00
2022-09-23T00:06:46.743Z,20.98
2022-09-23T00:06:56.780Z,21.01
2022-09-23T00:07:06.880Z,21.03
2022-09-23T00:07:16.952Z,21.00
2022-09-23T00:07:27.041Z,21.01
2022-09-23T00:07:37.151Z,21.01
2022-09-23T00:07:47.215Z,21.00
2022-09-23T00:07:57.291Z,21.01
2022-09-23T00:08:07.369Z,21.01
2022-09-23T00:08:17.460Z,21.00
2022-09-23T00:08:27.542Z,21.00
2022-09-23T00:08:37.617Z,21.00
2022-09-23T00:08:47.723Z,21.01
2022-09-23T00:08:57.750Z,21.00
2022-09-23T00:09:07.842Z,21.00
2022-09-23T00:09:17.949Z,21.00
2022-09-23T00:09:28.008Z,21.00
2022-09-23T00:09:38.086Z,21.00
2022-09-23T00:09:48.155Z,20.98
2022-09-23T00:09:58.262Z,21.01
2022-09-23T00:10:08.337Z,21.00
2022-09-23T00:10:18.430Z,21.00
2022-09-23T00:10:28.548Z,21.01
2022-09-23T00:10:38.636Z,20.98
2022-09-23T00:10:48.723Z,21.00
2022-09-23T00:10:58.802Z,21.01
2022-09-23T00:11:08.893Z,21.01
2022-09-23T00:11:18.985Z,21.00
2022-09-23T00:11:29.019Z,21.00
2022-09-23T00:11:39.101Z,21.00
2022-09-23T00:11:49.188Z,21.03
2022-09-23T00:11:59.258Z,20.98
2022-09-23T00:12:09.357Z,20.98
2022-09-23T00:12:19.455Z,21.00
2022-09-23T00:12:29.547Z,20.98
2022-09-23T00:12:39.654Z,21.00
2022-09-23T00:12:49.719Z,21.00
2022-09-23T00:12:59.815Z,21.00
2022-09-23T00:13:09.892Z,21.00
2022-09-23T00:13:19.986Z,21.01
2022-09-23T00:13:30.051Z,21.00
2022-09-23T00:13:40.166Z,21.00
2022-09-23T00:13:50.207Z,21.01
2022-09-23T00:14:00.284Z,21.00
2022-09-23T00:14:10.385Z,21.00
2022-09-23T00:14:20.513Z,21.00
2022-09-23T00:14:30.554Z,21.00
2022-09-23T00:14:40.651Z,21.01
2022-09-23T00:14:50.743Z,20.98
2022-09-23T00:15:00.781Z,21.01
2022-09-23T00:15:10.850Z,21.00
2022-09-23T00:15:20.952Z,21.00
2022-09-23T00:15:31.060Z,21.01
2022-09-23T00:15:41.134Z,21.01
2022-09-23T00:15:51.217Z,21.00
2022-09-23T00:16:01.309Z,21.00
2022-09-23T00:16:11.380Z,21.01
2022-09-23T00:16:21.520Z,21.01
2022-09-23T00:16:31.664Z,21.00
2022-09-23T00:16:41.739Z,21.01
2022-09-23T00:16:51.768Z,20.98
2022-09-23T00:17:01.882Z,21.00
2022-09-23T00:17:11.974Z,21.00
2022-09-23T00:17:21.967Z,20.98
2022-09-23T00:17:32.062Z,20.97
2022-09-23T00:17:42.168Z,21.00
2022-09-23T00:17:52.250Z,21.00
2022-09-23T00:18:02.341Z,21.01
2022-09-23T00:18:12.409Z,21.01
2022-09-23T00:18:22.507Z,21.00
2022-09-23T00:18:32.586Z,20.98
2022-09-23T00:18:42.686Z,20.98
2022-09-23T00:18:52.725Z,20.98
2022-09-23T00:19:02.793Z,21.00
2022-09-23T00:19:12.869Z,21.01
2022-09-23T00:19:22.948Z,21.00
2022-09-23T00:19:33.032Z,21.01
2022-09-23T00:19:43.137Z,21.01
2022-09-23T00:19:53.233Z,21.01
2022-09-23T00:20:03.321Z,20.98
2022-09-23T00:20:13.383Z,21.00
2022-09-23T00:20:23.490Z,21.01
2022-09-23T00:20:33.606Z,21.00
2022-09-23T00:20:43.636Z,20.98
2022-09-23T00:20:53.733Z,21.00
2022-09-23T00:21:03.790Z,21.00
2022-09-23T00:21:13.823Z,20.98
2022-09-23T00:21:23.915Z,20.98
2022-09-23T00:21:33.996Z,21.00
2022-09-23T00:21:44.112Z,20.98
2022-09-23T00:21:54.160Z,21.00
2022-09-23T00:22:04.225Z,21.00
2022-09-23T00:22:14.325Z,20.98
2022-09-23T00:22:24.396Z,20.98
2022-09-23T00:22:34.486Z,20.98
2022-09-23T00:22:44.562Z,20.98
2022-09-23T00:22:54.681Z,21.00
2022-09-23T00:23:04.742Z,20.98
2022-09-23T00:23:14.852Z,20.98
2022-09-23T00:23:24.932Z,21.00
2022-09-23T00:23:35.003Z,21.00
2022-09-23T00:23:45.072Z,21.00
2022-09-23T00:23:55.164Z,20.98
2022-09-23T00:24:05.334Z,21.00
2022-09-23T00:24:15.371Z,21.00
2022-09-23T00:24:25.422Z,21.00
2022-09-23T00:24:35.492Z,20.98
2022-09-23T00:24:45.573Z,20.98
2022-09-23T00:24:55.638Z,20.98
2022-09-23T00:25:05.731Z,20.98
2022-09-23T00:25:15.804Z,20.97
2022-09-23T00:25:25.891Z,21.00
2022-09-23T00:25:35.968Z,20.98
2022-09-23T00:25:46.059Z,21.00
2022-09-23T00:25:56.144Z,21.00
2022-09-23T00:26:06.221Z,20.98
2022-09-23T00:26:16.312Z,21.00
2022-09-23T00:26:26.355Z,20.97
2022-09-23T00:26:36.440Z,21.00
2022-09-23T00:26:46.517Z,21.00
2022-09-23T00:26:56.596Z,20.98
2022-09-23T00:27:06.703Z,20.98
2022-09-23T00:27:16.770Z,20.98
2022-09-23T00:27:26.848Z,21.00
2022-09-23T00:27:36.914Z,20.98
2022-09-23T00:27:47.011Z,21.01
2022-09-23T00:27:57.079Z,20.97
2022-09-23T00:28:07.151Z,20.98
2022-09-23T00:28:17.248Z,20.97
2022-09-23T00:28:27.324Z,21.00
2022-09-23T00:28:37.425Z,20.98
2022-09-23T00:28:47.516Z,20.98
2022-09-23T00:28:57.591Z,21.00
2022-09-23T00:29:07.682Z,20.98
2022-09-23T00:29:17.736Z,20.98
2022-09-23T00:29:27.805Z,20.98
2022-09-23T00:29:37.844Z,20.98
2022-09-23T00:29:47.875Z,20.98
2022-09-23T00:29:57.969Z,20.98
2022-09-23T00:30:08.055Z,20.98
2022-09-23T00:30:18.123Z,20.98
2022-09-23T00:30:28.202Z,21.00
2022-09-23T00:30:38.327Z,21.00
2022-09-23T00:30:48.405Z,20.98
2022-09-23T00:30:58.499Z,20.98
2022-09-23T00:31:08.615Z,20.98
2022-09-23T00:31:18.685Z,20.97
2022-09-23T00:31:28.679Z,20.98
2022-09-23T00:31:38.746Z,20.96
2022-09-23T00:31:48.812Z,20.98
2022-09-23T00:31:58.894Z,20.98
2022-09-23T00:32:08.978Z,20.98
2022-09-23T00:32:19.055Z,20.98
2022-09-23T00:32:29.153Z,20.98
2022-09-23T00:32:39.199Z,20.98
2022-09-23T00:32:49.277Z,20.98
2022-09-23T00:32:59.364Z,20.97
2022-09-23T00:33:09.457Z,20.97
2022-09-23T00:33:19.534Z,20.97
2022-09-23T00:33:29.622Z,21.00
2022-09-23T00:33:39.716Z,21.00
2022-09-23T00:33:49.789Z,20.98
2022-09-23T00:33:59.868Z,20.97
2022-09-23T00:34:09.955Z,20.97
2022-09-23T00:34:20.032Z,20.96
2022-09-23T00:34:30.131Z,20.98
2022-09-23T00:34:40.167Z,20.98
2022-09-23T00:34:50.270Z,20.98
2022-09-23T00:35:00.298Z,21.00
2022-09-23T00:35:10.343Z,20.97
2022-09-23T00:35:20.442Z,20.97
2022-09-23T00:35:30.514Z,20.96
2022-09-23T00:35:40.583Z,20.97
2022-09-23T00:35:50.651Z,20.97
2022-09-23T00:36:00.728Z,20.98
2022-09-23T00:36:10.791Z,20.97
2022-09-23T00:36:20.870Z,20.98
2022-09-23T00:36:30.936Z,21.00
2022-09-23T00:36:40.998Z,20.97
2022-09-23T00:36:51.067Z,20.98
2022-09-23T00:37:01.146Z,20.98
2022-09-23T00:37:11.241Z,20.98
2022-09-23T00:37:21.280Z,21.00
2022-09-23T00:37:31.374Z,20.98
2022-09-23T00:37:41.445Z,20.98
2022-09-23T00:37:51.514Z,20.97
2022-09-23T00:38:01.610Z,20.96
2022-09-23T00:38:11.687Z,20.98
2022-09-23T00:38:21.776Z,20.98
2022-09-23T00:38:31.860Z,20.96
2022-09-23T00:38:41.932Z,20.96
2022-09-23T00:38:52.044Z,20.97
2022-09-23T00:39:04.299Z,20.98
2022-09-23T00:39:12.221Z,20.97
2022-09-23T00:39:22.292Z,20.97
2022-09-23T00:39:32.383Z,20.98
2022-09-23T00:39:42.451Z,20.97
2022-09-23T00:39:52.517Z,20.98
2022-09-23T00:40:02.741Z,20.97
2022-09-23T00:40:12.797Z,20.98
2022-09-23T00:40:22.811Z,20.97
2022-09-23T00:40:32.892Z,20.96
2022-09-23T00:40:42.932Z,20.96
2022-09-23T00:40:52.963Z,20.96
2022-09-23T00:41:03.043Z,20.98
2022-09-23T00:41:13.085Z,20.98
2022-09-23T00:41:23.193Z,20.97
2022-09-23T00:41:33.281Z,20.97
2022-09-23T00:41:43.355Z,20.97
2022-09-23T00:41:53.429Z,20.96
2022-09-23T00:42:03.489Z,20.97
2022-09-23T00:42:13.552Z,20.97
2022-09-23T00:42:23.641Z,20.98
2022-09-23T00:42:33.735Z,20.97
2022-09-23T00:42:43.811Z,20.98
2022-09-23T00:42:53.881Z,20.97
2022-09-23T00:43:03.951Z,20.97
2022-09-23T00:43:14.015Z,20.94
2022-09-23T00:43:24.104Z,20.96
2022-09-23T00:43:34.193Z,20.96
2022-09-23T00:43:44.262Z,20.96
2022-09-23T00:43:54.324Z,20.94
2022-09-23T00:44:04.393Z,20.98
2022-09-23T00:44:14.460Z,20.96
2022-09-23T00:44:24.532Z,20.97
2022-09-23T00:44:34.635Z,20.97
2022-09-23T00:44:44.709Z,20.97
2022-09-23T00:44:54.772Z,20.97
2022-09-23T00:45:04.853Z,20.96
2022-09-23T00:45:14.909Z,20.97
2022-09-23T00:45:24.984Z,20.97
2022-09-23T00:45:35.048Z,20.98
2022-09-23T00:45:45.165Z,20.97
2022-09-23T00:45:55.278Z,20.97
2022-09-23T00:46:05.316Z,20.97
2022-09-23T00:46:15.445Z,20.96
2022-09-23T00:46:25.505Z,20.96
2022-09-23T00:46:35.593Z,20.96
2022-09-23T00:46:45.606Z,20.97
2022-09-23T00:46:55.687Z,20.97
2022-09-23T00:47:05.746Z,20.97
2022-09-23T00:47:15.810Z,20.96
2022-09-23T00:47:25.880Z,20.96
2022-09-23T00:47:35.964Z,20.97
2022-09-23T00:47:46.020Z,20.97
2022-09-23T00:47:56.099Z,20.96
2022-09-23T00:48:06.160Z,20.96
2022-09-23T00:48:16.221Z,20.96
2022-09-23T00:48:26.303Z,20.96
2022-09-23T00:48:36.391Z,20.96
2022-09-23T00:48:46.447Z,20.94
2022-09-23T00:48:56.507Z,20.96
2022-09-23T00:49:06.580Z,20.94
2022-09-23T00:49:16.644Z,20.97
2022-09-23T00:49:26.714Z,20.96
2022-09-23T00:49:36.828Z,20.98
2022-09-23T00:49:46.901Z,20.98
2022-09-23T00:49:56.965Z,20.97
2022-09-23T00:50:07.060Z,20.96
2022-09-23T00:50:17.103Z,20.97
2022-09-23T00:50:27.200Z,20.97
2022-09-23T00:50:37.271Z,20.97
2022-09-23T00:50:47.357Z,20.96
2022-09-23T00:50:57.445Z,20.97
2022-09-23T00:51:07.514Z,20.94
2022-09-23T00:51:17.588Z,20.96
2022-09-23T00:51:27.653Z,20.96
2022-09-23T00:51:37.736Z,20.96
2022-09-23T00:51:47.831Z,20.96
2022-09-23T00:51:57.888Z,20.97
2022-09-23T00:52:07.971Z,20.94
2022-09-23T00:52:18.051Z,20.94
2022-09-23T00:52:28.141Z,20.96
2022-09-23T00:52:38.222Z,20.97
2022-09-23T00:52:48.293Z,20.96
2022-09-23T00:52:58.341Z,20.96
2022-09-23T00:53:08.417Z,20.96
2022-09-23T00:53:18.481Z,20.97
2022-09-23T00:53:28.552Z,20.96
2022-09-23T00:53:38.623Z,20.98
2022-09-23T00:53:48.695Z,20.97
2022-09-23T00:53:58.791Z,20.96
2022-09-23T00:54:08.828Z,20.97
2022-09-23T00:54:18.900Z,20.97
2022-09-23T00:54:28.964Z,20.97
2022-09-23T00:54:39.053Z,20.96
2022-09-23T00:54:49.130Z,20.96
2022-09-23T00:54:59.215Z,20.94
2022-09-23T00:55:09.279Z,20.96
2022-09-23T00:55:19.365Z,20.96
2022-09-23T00:55:29.435Z,20.96
2022-09-23T00:55:39.520Z,20.97
2022-09-23T00:55:49.595Z,20.97
2022-09-23T00:55:59.662Z,20.96
2022-09-23T00:56:09.733Z,20.96
2022-09-23T00:56:19.799Z,20.96
2022-09-23T00:56:29.870Z,20.98
2022-09-23T00:56:39.944Z,20.97
2022-09-23T00:56:50.011Z,20.96
2022-09-23T00:57:00.088Z,20.97
2022-09-23T00:57:10.157Z,20.96
2022-09-23T00:57:20.225Z,20.94
2022-09-23T00:57:30.298Z,20.97
2022-09-23T00:57:40.388Z,20.97
2022-09-23T00:57:50.438Z,20.97
2022-09-23T00:58:00.521Z,20.96
2022-09-23T00:58:10.598Z,20.97
2022-09-23T00:58:20.667Z,20.96
2022-09-23T00:58:30.739Z,20.94
2022-09-23T00:58:40.884Z,20.96
2022-09-23T00:58:50.882Z,20.94
2022-09-23T00:59:00.945Z,20.96
2022-09-23T00:59:11.026Z,20.96
2022-09-23T00:59:21.091Z,20.94
2022-09-23T00:59:31.176Z,20.97
2022-09-23T00:59:41.303Z,20.97
2022-09-23T00:59:51.367Z,20.94
2022-09-23T01:00:01.428Z,20.96
2022-09-23T01:00:11.497Z,20.96
2022-09-23T01:00:21.605Z,20.97
2022-09-23T01:00:31.722Z,20.96
2022-09-23T01:00:41.796Z,20.96
2022-09-23T01:00:51.934Z,20.94
2022-09-23T01:01:01.966Z,20.96
2022-09-23T01:01:11.995Z,20.94
2022-09-23T01:01:22.221Z,20.98
2022-09-23T01:01:32.185Z,20.97
2022-09-23T01:01:42.272Z,20.96
2022-09-23T01:01:52.270Z,20.97
2022-09-23T01:02:02.372Z,20.94
2022-09-23T01:02:12.468Z,20.96
2022-09-23T01:02:22.611Z,20.96
2022-09-23T01:02:32.626Z,20.96
2022-09-23T01:02:42.761Z,20.97
2022-09-23T01:02:52.865Z,20.96
2022-09-23T01:03:02.850Z,20.97
2022-09-23T01:03:12.897Z,20.94
2022-09-23T01:03:23.022Z,20.94
2022-09-23T01:03:33.066Z,20.97
2022-09-23T01:03:43.136Z,20.94
2022-09-23T01:03:53.220Z,20.96
2022-09-23T01:04:03.282Z,20.94
2022-09-23T01:04:13.404Z,20.96
2022-09-23T01:04:23.461Z,20.96
2022-09-23T01:04:33.543Z,20.96
2022-09-23T01:04:43.614Z,20.97
2022-09-23T01:04:53.679Z,20.97
2022-09-23T01:05:03.790Z,20.97
2022-09-23T01:05:13.851Z,20.93
2022-09-23T01:05:23.919Z,20.96
2022-09-23T01:05:33.996Z,20.94
2022-09-23T01:05:44.063Z,20.96
2022-09-23T01:05:54.137Z,20.97
2022-09-23T01:06:04.202Z,20.97
2022-09-23T01:06:14.272Z,20.96
2022-09-23T01:06:24.357Z,20.96
2022-09-23T01:06:34.424Z,20.96
2022-09-23T01:06:44.547Z,20.94
2022-09-23T01:06:54.627Z,20.97
2022-09-23T01:07:04.694Z,20.96
2022-09-23T01:07:14.759Z,20.97
2022-09-23T01:07:24.839Z,20.96
2022-09-23T01:07:34.930Z,20.97
2022-09-23T01:07:44.990Z,20.96
2022-09-23T01:07:55.033Z,20.97
2022-09-23T01:08:05.110Z,20.97
2022-09-23T01:08:15.171Z,20.96
2022-09-23T01:08:25.250Z,20.96
2022-09-23T01:08:35.349Z,20.96
2022-09-23T01:08:45.425Z,20.97
2022-09-23T01:08:55.508Z,20.96
2022-09-23T01:09:05.647Z,20.94
2022-09-23T01:09:15.661Z,20.97
2022-09-23T01:09:25.721Z,20.94
2022-09-23T01:09:35.777Z,20.97
2022-09-23T01:09:45.859Z,20.96
2022-09-23T01:09:55.937Z,20.97
2022-09-23T01:10:06.013Z,20.96
2022-09-23T01:10:16.096Z,20.96
2022-09-23T01:10:26.179Z,20.96
2022-09-23T01:10:36.242Z,20.94
2022-09-23T01:10:46.313Z,20.97
2022-09-23T01:10:56.355Z,20.93
2022-09-23T01:11:06.489Z,20.97
2022-09-23T01:11:16.571Z,20.93
2022-09-23T01:11:26.643Z,20.94
2022-09-23T01:11:36.710Z,20.94
2022-09-23T01:11:46.776Z,20.94
2022-09-23T01:11:56.841Z,20.96
2022-09-23T01:12:06.914Z,20.94
2022-09-23T01:12:16.970Z,20.94
2022-09-23T01:12:27.039Z,20.94
2022-09-23T01:12:37.118Z,20.96
2022-09-23T01:12:47.203Z,20.94
2022-09-23T01:12:57.241Z,20.93
2022-09-23T01:13:07.301Z,20.94
2022-09-23T01:13:17.357Z,20.94
2022-09-23T01:13:27.429Z,20.96
2022-09-23T01:13:37.502Z,20.96
2022-09-23T01:13:47.567Z,20.96
2022-09-23T01:13:57.640Z,20.96
2022-09-23T01:14:07.727Z,20.96
2022-09-23T01:14:17.818Z,20.94
2022-09-23T01:14:27.910Z,20.94
2022-09-23T01:14:37.990Z,20.96
2022-09-23T01:14:48.466Z,20.94
2022-09-23T01:14:58.185Z,20.96
2022-09-23T01:15:08.255Z,20.94
2022-09-23T01:15:18.337Z,20.94
2022-09-23T01:15:28.430Z,20.94
2022-09-23T01:15:38.484Z,20.96
2022-09-23T01:15:48.582Z,20.96
2022-09-23T01:15:58.642Z,20.96
2022-09-23T01:16:08.720Z,20.94
2022-09-23T01:16:18.853Z,20.96
2022-09-23T01:16:28.918Z,20.96
2022-09-23T01:16:39.017Z,20.94
2022-09-23T01:16:49.140Z,20.96
2022-09-23T01:16:59.227Z,20.93
2022-09-23T01:17:09.212Z,20.96
2022-09-23T01:17:19.304Z,20.94
2022-09-23T01:17:29.389Z,20.96
2022-09-23T01:17:39.471Z,20.94
2022-09-23T01:17:49.547Z,20.94
2022-09-23T01:17:59.602Z,20.93
2022-09-23T01:18:09.673Z,20.93
2022-09-23T01:18:19.719Z,20.97
2022-09-23T01:18:29.784Z,20.94
2022-09-23T01:18:39.855Z,20.94
2022-09-23T01:18:49.933Z,20.94
2022-09-23T01:19:00.849Z,20.94
2022-09-23T01:19:10.080Z,20.96
2022-09-23T01:19:20.183Z,20.94
2022-09-23T01:19:30.206Z,20.94
2022-09-23T01:19:40.295Z,20.94
2022-09-23T01:19:50.390Z,20.96
2022-09-23T01:20:00.450Z,20.93
2022-09-23T01:20:10.484Z,20.93
2022-09-23T01:20:20.588Z,20.93
2022-09-23T01:20:30.657Z,20.94
2022-09-23T01:20:40.728Z,20.93
2022-09-23T01:20:50.792Z,20.96
2022-09-23T01:21:00.862Z,20.94
2022-09-23T01:21:10.979Z,20.93
2022-09-23T01:21:21.001Z,20.96
2022-09-23T01:21:31.073Z,20.94
2022-09-23T01:21:41.169Z,20.94
2022-09-23T01:21:51.204Z,20.94
2022-09-23T01:22:01.291Z,20.93
2022-09-23T01:22:11.378Z,20.94
2022-09-23T01:22:21.458Z,20.93
2022-09-23T01:22:31.540Z,20.93
2022-09-23T01:22:41.625Z,20.93
2022-09-23T01:22:51.722Z,20.94
2022-09-23T01:23:01.822Z,20.96
2022-09-23T01:23:11.887Z,20.94
2022-09-23T01:23:22.886Z,20.94
2022-09-23T01:23:32.082Z,20.93
2022-09-23T01:23:42.145Z,20.94
2022-09-23T01:23:52.213Z,20.91
2022-09-23T01:24:02.450Z,20.94
2022-09-23T01:24:12.316Z,20.94
2022-09-23T01:24:22.456Z,20.94
2022-09-23T01:24:32.525Z,20.93
2022-09-23T01:24:42.596Z,20.94
2022-09-23T01:24:52.666Z,20.94
2022-09-23T01:25:02.710Z,20.91
2022-09-23T01:25:12.782Z,20.93
2022-09-23T01:25:22.844Z,20.96
2022-09-23T01:25:32.900Z,20.94
2022-09-23T01:25:42.977Z,20.93
2022-09-23T01:25:53.081Z,20.93
2022-09-23T01:26:03.155Z,20.93
2022-09-23T01:26:13.233Z,20.91
2022-09-23T01:26:23.291Z,20.93
2022-09-23T01:26:33.361Z,20.93
2022-09-23T01:26:43.420Z,20.94
2022-09-23T01:26:53.492Z,20.93
2022-09-23T01:27:03.570Z,20.94
2022-09-23T01:27:13.648Z,20.94
2022-09-23T01:27:23.719Z,20.94
2022-09-23T01:27:33.796Z,20.93
2022-09-23T01:27:43.863Z,20.94
2022-09-23T01:27:53.926Z,20.94
2022-09-23T01:28:04.002Z,20.93
2022-09-23T01:28:14.065Z,20.93
2022-09-23T01:28:24.145Z,20.93
2022-09-23T01:28:34.195Z,20.96
2022-09-23T01:28:44.251Z,20.93
2022-09-23T01:28:54.309Z,20.94
2022-09-23T01:29:04.373Z,20.94
2022-09-23T01:29:14.452Z,20.93
2022-09-23T01:29:24.508Z,20.93
2022-09-23T01:29:34.568Z,20.94
2022-09-23T01:29:44.645Z,20.94
2022-09-23T01:29:54.730Z,20.91
2022-09-23T01:30:04.818Z,20.94
2022-09-23T01:30:14.913Z,20.93
2022-09-23T01:30:24.991Z,20.94
2022-09-23T01:30:35.098Z,20.93
2022-09-23T01:30:45.211Z,20.94
2022-09-23T01:30:55.293Z,20.93
2022-09-23T01:31:05.405Z,20.94
2022-09-23T01:31:15.470Z,20.96
2022-09-23T01:31:25.513Z,20.93
2022-09-23T01:31:35.582Z,20.93
2022-09-23T01:31:45.650Z,20.91
2022-09-23T01:31:55.721Z,20.91
2022-09-23T01:32:05.801Z,20.94
2022-09-23T01:32:15.857Z,20.93
2022-09-23T01:32:25.936Z,20.93
2022-09-23T01:32:35.993Z,20.93
2022-09-23T01:32:46.058Z,20.93
2022-09-23T01:32:56.140Z,20.94
2022-09-23T01:33:06.231Z,20.93
2022-09-23T01:33:16.316Z,20.93
2022-09-23T01:33:26.391Z,20.94
2022-09-23T01:33:36.467Z,20.93
2022-09-23T01:33:46.557Z,20.93
2022-09-23T01:33:56.611Z,20.93
2022-09-23T01:34:06.691Z,20.94
2022-09-23T01:34:16.766Z,20.91
2022-09-23T01:34:26.882Z,20.94
2022-09-23T01:34:36.933Z,20.94
2022-09-23T01:34:47.076Z,20.93
2022-09-23T01:34:57.163Z,20.93
2022-09-23T01:35:07.248Z,20.93
2022-09-23T01:35:17.305Z,20.93
2022-09-23T01:35:27.376Z,20.94
2022-09-23T01:35:37.451Z,20.90
2022-09-23T01:35:47.512Z,20.91
2022-09-23T01:35:57.589Z,20.93
2022-09-23T01:36:07.666Z,20.93
2022-09-23T01:36:17.726Z,20.93
2022-09-23T01:36:27.783Z,20.91
2022-09-23T01:36:37.851Z,20.91
2022-09-23T01:36:47.910Z,20.94
2022-09-23T01:36:57.970Z,20.93
2022-09-23T01:37:08.038Z,20.93
2022-09-23T01:37:18.122Z,20.91
2022-09-23T01:37:28.183Z,20.93
2022-09-23T01:37:38.242Z,20.93
2022-09-23T01:37:48.350Z,20.94
2022-09-23T01:37:58.420Z,20.93
2022-09-23T01:38:08.492Z,20.93
2022-09-23T01:38:18.612Z,20.91
2022-09-23T01:38:28.635Z,20.93
2022-09-23T01:38:38.717Z,20.93
2022-09-23T01:38:48.776Z,20.91
2022-09-23T01:38:58.933Z,20.91
2022-09-23T01:39:08.923Z,20.90
2022-09-23T01:39:19.011Z,20.93
2022-09-23T01:39:29.109Z,20.93
2022-09-23T01:39:39.171Z,20.91
2022-09-23T01:39:49.236Z,20.91
2022-09-23T01:39:59.317Z,20.93
2022-09-23T01:40:09.450Z,20.91
2022-09-23T01:40:19.495Z,20.91
2022-09-23T01:40:29.589Z,20.91
2022-09-23T01:40:39.673Z,20.93
2022-09-23T01:40:49.723Z,20.93
2022-09-23T01:40:59.795Z,20.91
2022-09-23T01:41:09.855Z,20.93
2022-09-23T01:41:19.909Z,20.91
2022-09-23T01:41:29.964Z,20.93
2022-09-23T01:41:40.041Z,20.91
2022-09-23T01:41:50.119Z,20.91
2022-09-23T01:42:00.191Z,20.93
2022-09-23T01:42:10.271Z,20.94
2022-09-23T01:42:20.327Z,20.93
2022-09-23T01:42:30.378Z,20.93
2022-09-23T01:42:40.480Z,20.93
2022-09-23T01:42:50.535Z,20.91
2022-09-23T01:43:00.590Z,20.91
2022-09-23T01:43:10.655Z,20.93
2022-09-23T01:43:20.740Z,20.90
2022-09-23T01:43:30.797Z,20.91
2022-09-23T01:43:40.882Z,20.91
2022-09-23T01:43:50.970Z,20.93
2022-09-23T01:44:01.068Z,20.91
2022-09-23T01:44:11.125Z,20.91
2022-09-23T01:44:21.193Z,20.93
2022-09-23T01:44:31.293Z,20.91
2022-09-23T01:44:41.369Z,20.91
2022-09-23T01:44:51.470Z,20.90
2022-09-23T01:45:01.570Z,20.91
2022-09-23T01:45:11.631Z,20.93
2022-09-23T01:45:21.689Z,20.90
2022-09-23T01:45:31.768Z,20.93
2022-09-23T01:45:41.837Z,20.91
2022-09-23T01:45:51.908Z,20.91
2022-09-23T01:46:01.974Z,20.93
2022-09-23T01:46:12.040Z,20.91
2022-09-23T01:46:22.100Z,20.93
2022-09-23T01:46:32.202Z,20.93
2022-09-23T01:46:42.266Z,20.93
2022-09-23T01:46:52.341Z,20.91
2022-09-23T01:47:02.409Z,20.90
2022-09-23T01:47:12.487Z,20.90
2022-09-23T01:47:22.559Z,20.93
2022-09-23T01:47:32.615Z,20.91
2022-09-23T01:47:42.682Z,20.93
2022-09-23T01:47:52.793Z,20.93
2022-09-23T01:48:02.913Z,20.93
2022-09-23T01:48:12.948Z,20.90
2022-09-23T01:48:23.051Z,20.91
2022-09-23T01:48:33.166Z,20.93
2022-09-23T01:48:43.208Z,20.91
2022-09-23T01:48:53.175Z,20.90
2022-09-23T01:49:03.233Z,20.91
2022-09-23T01:49:13.350Z,20.93
2022-09-23T01:49:23.359Z,20.91
2022-09-23T01:49:33.435Z,20.93
2022-09-23T01:49:43.494Z,20.93
2022-09-23T01:49:53.581Z,20.93
2022-09-23T01:50:03.681Z,20.91
2022-09-23T01:50:13.732Z,20.94
2022-09-23T01:50:23.844Z,20.91
2022-09-23T01:50:33.900Z,20.90
2022-09-23T01:50:43.980Z,20.91
2022-09-23T01:50:54.069Z,20.91
2022-09-23T01:51:04.145Z,20.94
2022-09-23T01:51:14.214Z,20.90
2022-09-23T01:51:24.279Z,20.91
2022-09-23T01:51:34.362Z,20.91
2022-09-23T01:51:44.417Z,20.91
2022-09-23T01:51:54.484Z,20.91
2022-09-23T01:52:04.546Z,20.93
2022-09-23T01:52:14.607Z,20.94
2022-09-23T01:52:24.671Z,20.93
2022-09-23T01:52:34.728Z,20.93
2022-09-23T01:52:44.801Z,20.93
2022-09-23T01:52:54.908Z,20.93
2022-09-23T01:53:04.977Z,20.91
2022-09-23T01:53:15.055Z,20.91
2022-09-23T01:53:25.131Z,20.90
2022-09-23T01:53:35.215Z,20.93
2022-09-23T01:53:45.294Z,20.90
2022-09-23T01:53:55.361Z,20.93
2022-09-23T01:54:05.431Z,20.91
2022-09-23T01:54:15.530Z,20.93
2022-09-23T01:54:25.545Z,20.91
2022-09-23T01:54:35.628Z,20.90
2022-09-23T01:54:45.684Z,20.93
2022-09-23T01:54:55.734Z,20.91
2022-09-23T01:55:05.819Z,20.93
2022-09-23T01:55:15.912Z,20.90
2022-09-23T01:55:25.980Z,20.91
2022-09-23T01:55:36.058Z,20.91
2022-09-23T01:55:46.117Z,20.93
2022-09-23T01:55:56.196Z,20.91
2022-09-23T01:56:06.263Z,20.91
2022-09-23T01:56:16.329Z,20.93
2022-09-23T01:56:26.400Z,20.93
2022-09-23T01:56:36.475Z,20.91
2022-09-23T01:56:46.557Z,20.91
2022-09-23T01:56:56.638Z,20.91
2022-09-23T01:57:06.703Z,20.91
2022-09-23T01:57:16.784Z,20.88
2022-09-23T01:57:26.843Z,20.91
2022-09-23T01:57:36.938Z,20.91
2022-09-23T01:57:46.992Z,20.91
2022-09-23T01:57:57.073Z,20.90
2022-09-23T01:58:07.124Z,20.91
2022-09-23T01:58:17.236Z,20.90
2022-09-23T01:58:27.304Z,20.93
2022-09-23T01:58:37.364Z,20.90
2022-09-23T01:58:47.444Z,20.93
2022-09-23T01:58:57.501Z,20.91
2022-09-23T01:59:07.571Z,20.90
2022-09-23T01:59:17.683Z,20.90
2022-09-23T01:59:27.756Z,20.91
2022-09-23T01:59:37.827Z,20.90
2022-09-23T01:59:47.901Z,20.91
2022-09-23T01:59:57.971Z,20.90
2022-09-23T02:00:08.069Z,20.93
2022-09-23T02:00:18.132Z,20.91
2022-09-23T02:00:28.200Z,20.93
2022-09-23T02:00:38.271Z,20.90
2022-09-23T02:00:48.340Z,20.91
2022-09-23T02:00:58.510Z,20.93
2022-09-23T02:01:08.574Z,20.91
2022-09-23T02:01:18.652Z,20.88
2022-09-23T02:01:28.743Z,20.90
2022-09-23T02:01:38.852Z,20.90
2022-09-23T02:01:48.870Z,20.90
2022-09-23T02:01:58.939Z,20.91
2022-09-23T02:02:09.109Z,20.91
2022-09-23T02:02:19.310Z,20.91
2022-09-23T02:02:29.284Z,20.90
2022-09-23T02:02:39.383Z,20.91
2022-09-23T02:02:49.521Z,20.91
2022-09-23T02:02:59.446Z,20.90
2022-09-23T02:03:09.518Z,20.91
2022-09-23T02:03:19.588Z,20.90
2022-09-23T02:03:29.658Z,20.91
2022-09-23T02:03:39.712Z,20.90
2022-09-23T02:03:49.760Z,20.91
2022-09-23T02:03:59.898Z,20.88
2022-09-23T02:04:09.933Z,20.90
2022-09-23T02:04:20.018Z,20.91
2022-09-23T02:04:30.078Z,20.91
2022-09-23T02:04:40.141Z,20.88
2022-09-23T02:04:50.212Z,20.91
2022-09-23T02:05:00.289Z,20.93
2022-09-23T02:05:10.362Z,20.90
2022-09-23T02:05:20.456Z,20.91
2022-09-23T02:05:30.521Z,20.91
2022-09-23T02:05:40.593Z,20.90
2022-09-23T02:05:50.665Z,20.91
2022-09-23T02:06:00.722Z,20.88
2022-09-23T02:06:10.780Z,20.88
2022-09-23T02:06:20.868Z,20.91
2022-09-23T02:06:30.940Z,20.88
2022-09-23T02:06:41.011Z,20.90
2022-09-23T02:06:51.078Z,20.88
2022-09-23T02:07:01.144Z,20.90
2022-09-23T02:07:11.216Z,20.88
2022-09-23T02:07:21.297Z,20.88
2022-09-23T02:07:31.392Z,20.91
2022-09-23T02:07:41.454Z,20.91
2022-09-23T02:07:51.529Z,20.88
2022-09-23T02:08:01.594Z,20.91
2022-09-23T02:08:11.652Z,20.90
2022-09-23T02:08:21.709Z,20.91
2022-09-23T02:08:31.763Z,20.91
2022-09-23T02:08:41.849Z,20.90
2022-09-23T02:08:51.914Z,20.91
2022-09-23T02:09:01.995Z,20.90
2022-09-23T02:09:12.095Z,20.90
2022-09-23T02:09:22.154Z,20.90
2022-09-23T02:09:32.225Z,20.90
2022-09-23T02:09:42.302Z,20.91